sensor_id;sensor_type;location;lat;lon;timestamp;pressure;altitude;pressure_sealevel;temperature;humidity
2685;BME280;1352;48.446;9.156;2022-12-01T00:01:13;95666.16;;;4.22;100.00
2685;BME280;1352;48.446;9.156;2022-12-01T00:03:41;95663.50;;;4.37;100.00
2685;BME280;1352;48.446;9.156;2022-12-01T00:06:12;95669.59;;;4.36;100.00
2685;BME280;1352;48.446;9.156;2022-12-01T00:08:41;95658.53;;;4.34;100.00
2685;BME280;1352;48.446;9.156;2022-12-01T00:11:30;95663.59;;;4.36;100.00
2685;BME280;1352;48.446;9.156;2022-12-01T00:13:57;95661.38;;;4.30;100.00
2685;BME280;1352;48.446;9.156;2022-12-01T00:16:24;95667.09;;;4.35;100.00
2685;BME280;1352;48.446;9.156;2022-12-01T00:18:51;95660.00;;;4.38;100.00
2685;BME280;1352;48.446;9.156;2022-12-01T00:21:22;95661.69;;;4.39;100.00
2685;BME280;1352;48.446;9.156;2022-12-01T00:23:51;95662.59;;;4.38;100.00
2685;BME280;1352;48.446;9.156;2022-12-01T00:26:19;95667.69;;;4.40;100.00
2685;BME280;1352;48.446;9.156;2022-12-01T00:28:47;95664.19;;;4.41;100.00
2685;BME280;1352;48.446;9.156;2022-12-01T00:31:14;95662.22;;;4.44;100.00
2685;BME280;1352;48.446;9.156;2022-12-01T00:33:42;95665.94;;;4.40;100.00
2685;BME280;1352;48.446;9.156;2022-12-01T00:36:09;95669.13;;;4.44;100.00
2685;BME280;1352;48.446;9.156;2022-12-01T00:38:38;95664.81;;;4.44;100.00
2685;BME280;1352;48.446;9.156;2022-12-01T00:41:05;95659.56;;;4.46;100.00
2685;BME280;1352;48.446;9.156;2022-12-01T00:43:32;95662.97;;;4.46;100.00
2685;BME280;1352;48.446;9.156;2022-12-01T00:45:59;95669.63;;;4.51;100.00
2685;BME280;1352;48.446;9.156;2022-12-01T00:48:26;95665.94;;;4.55;100.00
2685;BME280;1352;48.446;9.156;2022-12-01T00:50:54;95659.00;;;4.55;100.00
2685;BME280;1352;48.446;9.156;2022-12-01T00:53:21;95663.25;;;4.56;100.00
2685;BME280;1352;48.446;9.156;2022-12-01T00:55:50;95658.19;;;4.55;100.00
2685;BME280;1352;48.446;9.156;2022-12-01T00:58:19;95666.31;;;4.48;100.00
2685;BME280;1352;48.446;9.156;2022-12-01T01:00:46;95669.59;;;4.36;100.00
2685;BME280;1352;48.446;9.156;2022-12-01T01:03:13;95668.06;;;4.34;100.00
2685;BME280;1352;48.446;9.156;2022-12-01T01:05:41;95664.53;;;4.35;100.00
2685;BME280;1352;48.446;9.156;2022-12-01T01:08:09;95667.38;;;4.30;100.00
2685;BME280;1352;48.446;9.156;2022-12-01T01:10:37;95670.66;;;4.18;100.00
2685;BME280;1352;48.446;9.156;2022-12-01T01:13:06;95675.00;;;4.18;100.00
2685;BME280;1352;48.446;9.156;2022-12-01T01:15:33;95674.00;;;4.20;100.00
2685;BME280;1352;48.446;9.156;2022-12-01T01:18:01;95675.53;;;4.08;100.00
2685;BME280;1352;48.446;9.156;2022-12-01T01:20:31;95667.97;;;4.05;100.00
2685;BME280;1352;48.446;9.156;2022-12-01T01:22:58;95671.56;;;4.03;100.00
2685;BME280;1352;48.446;9.156;2022-12-01T01:25:25;95679.38;;;4.01;100.00
2685;BME280;1352;48.446;9.156;2022-12-01T01:27:53;95673.47;;;3.99;100.00
2685;BME280;1352;48.446;9.156;2022-12-01T01:30:21;95679.47;;;4.00;100.00
2685;BME280;1352;48.446;9.156;2022-12-01T01:32:48;95675.31;;;3.97;100.00
2685;BME280;1352;48.446;9.156;2022-12-01T01:35:15;95674.81;;;3.91;100.00
2685;BME280;1352;48.446;9.156;2022-12-01T01:37:42;95676.97;;;3.98;100.00
2685;BME280;1352;48.446;9.156;2022-12-01T01:40:10;95674.97;;;4.03;100.00
2685;BME280;1352;48.446;9.156;2022-12-01T01:42:37;95679.47;;;4.00;100.00
2685;BME280;1352;48.446;9.156;2022-12-01T01:45:17;95671.50;;;3.89;100.00
2685;BME280;1352;48.446;9.156;2022-12-01T01:47:47;95673.84;;;3.93;100.00
2685;BME280;1352;48.446;9.156;2022-12-01T01:50:17;95670.97;;;3.98;100.00
2685;BME280;1352;48.446;9.156;2022-12-01T01:52:49;95674.31;;;4.00;100.00
2685;BME280;1352;48.446;9.156;2022-12-01T01:55:17;95665.66;;;4.01;100.00
2685;BME280;1352;48.446;9.156;2022-12-01T01:57:45;95674.88;;;4.05;100.00
2685;BME280;1352;48.446;9.156;2022-12-01T02:00:15;95671.28;;;4.07;100.00
2685;BME280;1352;48.446;9.156;2022-12-01T02:02:43;95674.53;;;4.11;100.00
2685;BME280;1352;48.446;9.156;2022-12-01T02:05:15;95662.44;;;4.11;100.00
2685;BME280;1352;48.446;9.156;2022-12-01T02:07:43;95670.19;;;4.11;100.00
2685;BME280;1352;48.446;9.156;2022-12-01T02:10:13;95664.94;;;4.13;100.00
2685;BME280;1352;48.446;9.156;2022-12-01T02:13:01;95665.41;;;4.05;100.00
2685;BME280;1352;48.446;9.156;2022-12-01T02:15:36;95662.75;;;3.91;100.00
2685;BME280;1352;48.446;9.156;2022-12-01T02:18:16;95666.09;;;3.93;100.00
2685;BME280;1352;48.446;9.156;2022-12-01T02:21:07;95655.00;;;3.91;100.00
2685;BME280;1352;48.446;9.156;2022-12-01T02:27:00;95663.44;;;3.95;100.00
2685;BME280;1352;48.446;9.156;2022-12-01T02:30:03;95666.91;;;3.94;100.00
2685;BME280;1352;48.446;9.156;2022-12-01T02:32:44;95655.94;;;3.90;100.00
2685;BME280;1352;48.446;9.156;2022-12-01T02:35:17;95658.25;;;3.95;100.00
2685;BME280;1352;48.446;9.156;2022-12-01T02:37:54;95662.38;;;3.83;100.00
2685;BME280;1352;48.446;9.156;2022-12-01T02:40:29;95662.19;;;3.86;100.00
2685;BME280;1352;48.446;9.156;2022-12-01T02:43:02;95663.66;;;3.90;100.00
2685;BME280;1352;48.446;9.156;2022-12-01T02:45:35;95660.34;;;3.88;100.00
2685;BME280;1352;48.446;9.156;2022-12-01T02:48:11;95655.28;;;3.87;100.00
2685;BME280;1352;48.446;9.156;2022-12-01T02:50:41;95657.69;;;3.90;100.00
2685;BME280;1352;48.446;9.156;2022-12-01T02:53:11;95659.94;;;3.96;100.00
2685;BME280;1352;48.446;9.156;2022-12-01T02:55:48;95663.44;;;3.95;100.00
2685;BME280;1352;48.446;9.156;2022-12-01T02:58:16;95654.84;;;3.94;100.00
2685;BME280;1352;48.446;9.156;2022-12-01T03:00:54;95654.94;;;3.93;100.00
2685;BME280;1352;48.446;9.156;2022-12-01T03:03:32;95662.50;;;3.96;100.00
2685;BME280;1352;48.446;9.156;2022-12-01T03:06:09;95658.91;;;3.98;100.00
2685;BME280;1352;48.446;9.156;2022-12-01T03:08:44;95656.53;;;3.95;100.00
2685;BME280;1352;48.446;9.156;2022-12-01T03:11:22;95655.56;;;3.96;100.00
2685;BME280;1352;48.446;9.156;2022-12-01T03:14:03;95651.16;;;3.98;100.00
2685;BME280;1352;48.446;9.156;2022-12-01T03:16:41;95659.94;;;3.96;100.00
2685;BME280;1352;48.446;9.156;2022-12-01T03:19:15;95652.00;;;3.99;100.00
2685;BME280;1352;48.446;9.156;2022-12-01T03:21:48;95651.44;;;3.94;100.00
2685;BME280;1352;48.446;9.156;2022-12-01T03:24:24;95653.09;;;3.95;100.00
2685;BME280;1352;48.446;9.156;2022-12-01T03:26:54;95653.00;;;3.96;100.00
2685;BME280;1352;48.446;9.156;2022-12-01T03:29:26;95645.91;;;4.00;100.00
2685;BME280;1352;48.446;9.156;2022-12-01T03:32:04;95649.59;;;3.96;100.00
2685;BME280;1352;48.446;9.156;2022-12-01T03:34:39;95656.59;;;3.94;100.00
2685;BME280;1352;48.446;9.156;2022-12-01T03:37:11;95657.59;;;3.91;100.00
2685;BME280;1352;48.446;9.156;2022-12-01T03:39:41;95653.09;;;3.95;100.00
2685;BME280;1352;48.446;9.156;2022-12-01T03:42:14;95655.00;;;3.91;100.00
2685;BME280;1352;48.446;9.156;2022-12-01T03:44:45;95647.75;;;3.68;100.00
2685;BME280;1352;48.446;9.156;2022-12-01T03:47:15;95649.91;;;3.60;100.00
2685;BME280;1352;48.446;9.156;2022-12-01T03:49:45;95655.66;;;3.65;100.00
2685;BME280;1352;48.446;9.156;2022-12-01T03:52:20;95645.78;;;3.57;100.00
2685;BME280;1352;48.446;9.156;2022-12-01T03:54:56;95649.19;;;3.42;100.00
2685;BME280;1352;48.446;9.156;2022-12-01T03:57:30;95648.94;;;3.47;100.00
2685;BME280;1352;48.446;9.156;2022-12-01T03:59:58;95648.13;;;3.46;100.00
2685;BME280;1352;48.446;9.156;2022-12-01T04:02:26;95647.00;;;3.50;100.00
2685;BME280;1352;48.446;9.156;2022-12-01T04:04:55;95650.84;;;3.43;100.00
2685;BME280;1352;48.446;9.156;2022-12-01T04:07:22;95651.53;;;3.47;100.00
2685;BME280;1352;48.446;9.156;2022-12-01T04:09:49;95647.34;;;3.44;100.00
2685;BME280;1352;48.446;9.156;2022-12-01T04:12:16;95655.03;;;3.46;100.00
2685;BME280;1352;48.446;9.156;2022-12-01T04:14:55;95653.28;;;3.46;100.00
2685;BME280;1352;48.446;9.156;2022-12-01T04:17:23;95649.94;;;3.44;100.00
2685;BME280;1352;48.446;9.156;2022-12-01T04:19:53;95660.41;;;3.41;100.00
2685;BME280;1352;48.446;9.156;2022-12-01T04:22:22;95654.41;;;3.41;100.00
2685;BME280;1352;48.446;9.156;2022-12-01T04:24:50;95654.25;;;3.44;100.00
2685;BME280;1352;48.446;9.156;2022-12-01T04:27:17;95651.69;;;3.44;100.00
2685;BME280;1352;48.446;9.156;2022-12-01T04:29:44;95649.78;;;3.47;100.00
2685;BME280;1352;48.446;9.156;2022-12-01T04:32:11;95656.91;;;3.42;100.00
2685;BME280;1352;48.446;9.156;2022-12-01T04:34:38;95660.34;;;3.43;100.00
2685;BME280;1352;48.446;9.156;2022-12-01T04:37:05;95661.50;;;3.37;100.00
2685;BME280;1352;48.446;9.156;2022-12-01T04:39:34;95663.00;;;3.41;100.00
2685;BME280;1352;48.446;9.156;2022-12-01T04:42:02;95663.66;;;3.45;100.00
2685;BME280;1352;48.446;9.156;2022-12-01T04:44:29;95656.50;;;3.50;100.00
2685;BME280;1352;48.446;9.156;2022-12-01T04:46:56;95653.69;;;3.39;100.00
2685;BME280;1352;48.446;9.156;2022-12-01T04:49:24;95653.00;;;3.51;100.00
2685;BME280;1352;48.446;9.156;2022-12-01T04:51:51;95657.09;;;3.55;100.00
2685;BME280;1352;48.446;9.156;2022-12-01T04:54:18;95663.16;;;3.54;100.00
2685;BME280;1352;48.446;9.156;2022-12-01T04:56:47;95655.25;;;3.57;100.00
2685;BME280;1352;48.446;9.156;2022-12-01T04:59:14;95661.81;;;3.62;100.00
2685;BME280;1352;48.446;9.156;2022-12-01T05:01:41;95668.72;;;3.62;100.00
2685;BME280;1352;48.446;9.156;2022-12-01T05:04:10;95666.97;;;3.62;100.00
2685;BME280;1352;48.446;9.156;2022-12-01T05:06:38;95658.56;;;3.59;100.00
2685;BME280;1352;48.446;9.156;2022-12-01T05:09:06;95672.41;;;3.58;100.00
2685;BME280;1352;48.446;9.156;2022-12-01T05:11:33;95662.31;;;3.53;100.00
2685;BME280;1352;48.446;9.156;2022-12-01T05:14:01;95663.31;;;3.51;100.00
2685;BME280;1352;48.446;9.156;2022-12-01T05:16:30;95672.22;;;3.45;100.00
2685;BME280;1352;48.446;9.156;2022-12-01T05:18:59;95668.56;;;3.49;100.00
2685;BME280;1352;48.446;9.156;2022-12-01T05:21:46;95673.16;;;3.28;100.00
2685;BME280;1352;48.446;9.156;2022-12-01T05:24:15;95673.56;;;3.36;100.00
2685;BME280;1352;48.446;9.156;2022-12-01T05:26:42;95673.66;;;3.35;100.00
2685;BME280;1352;48.446;9.156;2022-12-01T05:29:11;95663.81;;;3.42;100.00
2685;BME280;1352;48.446;9.156;2022-12-01T05:31:38;95666.41;;;3.42;100.00
2685;BME280;1352;48.446;9.156;2022-12-01T05:34:06;95662.44;;;3.36;100.00
2685;BME280;1352;48.446;9.156;2022-12-01T05:36:33;95661.59;;;3.35;100.00
2685;BME280;1352;48.446;9.156;2022-12-01T05:39:00;95673.09;;;3.30;100.00
2685;BME280;1352;48.446;9.156;2022-12-01T05:41:27;95671.56;;;3.26;100.00
2685;BME280;1352;48.446;9.156;2022-12-01T05:43:54;95667.75;;;3.33;100.00
2685;BME280;1352;48.446;9.156;2022-12-01T05:46:22;95675.31;;;3.36;100.00
2685;BME280;1352;48.446;9.156;2022-12-01T05:48:49;95675.03;;;3.41;100.00
2685;BME280;1352;48.446;9.156;2022-12-01T05:51:16;95678.56;;;3.40;100.00
2685;BME280;1352;48.446;9.156;2022-12-01T05:53:44;95671.63;;;3.40;100.00
2685;BME280;1352;48.446;9.156;2022-12-01T05:56:11;95676.47;;;3.46;100.00
2685;BME280;1352;48.446;9.156;2022-12-01T05:58:38;95676.41;;;3.48;100.00
2685;BME280;1352;48.446;9.156;2022-12-01T06:01:05;95672.16;;;3.47;100.00
2685;BME280;1352;48.446;9.156;2022-12-01T06:03:34;95671.31;;;3.46;100.00
2685;BME280;1352;48.446;9.156;2022-12-01T06:06:01;95675.38;;;3.50;100.00
2685;BME280;1352;48.446;9.156;2022-12-01T06:08:28;95680.38;;;3.53;100.00
2685;BME280;1352;48.446;9.156;2022-12-01T06:10:55;95677.78;;;3.53;100.00
2685;BME280;1352;48.446;9.156;2022-12-01T06:13:22;95674.97;;;3.58;100.00
2685;BME280;1352;48.446;9.156;2022-12-01T06:15:57;95677.47;;;3.44;100.00
2685;BME280;1352;48.446;9.156;2022-12-01T06:18:24;95683.31;;;3.47;100.00
2685;BME280;1352;48.446;9.156;2022-12-01T06:20:53;95675.56;;;3.47;100.00
2685;BME280;1352;48.446;9.156;2022-12-01T06:23:20;95680.22;;;3.41;100.00
2685;BME280;1352;48.446;9.156;2022-12-01T06:25:48;95676.63;;;3.43;100.00
2685;BME280;1352;48.446;9.156;2022-12-01T06:28:15;95683.31;;;3.47;100.00
2685;BME280;1352;48.446;9.156;2022-12-01T06:30:42;95688.53;;;3.46;100.00
2685;BME280;1352;48.446;9.156;2022-12-01T06:33:10;95688.53;;;3.46;100.00
2685;BME280;1352;48.446;9.156;2022-12-01T06:35:37;95691.88;;;3.48;100.00
2685;BME280;1352;48.446;9.156;2022-12-01T06:38:06;95689.38;;;3.46;100.00
2685;BME280;1352;48.446;9.156;2022-12-01T06:40:33;95693.53;;;3.49;100.00
2685;BME280;1352;48.446;9.156;2022-12-01T06:43:01;95695.38;;;3.47;100.00
2685;BME280;1352;48.446;9.156;2022-12-01T06:45:28;95698.78;;;3.47;100.00
2685;BME280;1352;48.446;9.156;2022-12-01T06:47:56;95698.78;;;3.47;100.00
2685;BME280;1352;48.446;9.156;2022-12-01T06:50:23;95694.59;;;3.45;100.00
2685;BME280;1352;48.446;9.156;2022-12-01T06:52:50;95695.44;;;3.45;100.00
2685;BME280;1352;48.446;9.156;2022-12-01T06:55:20;95698.25;;;3.41;100.00
2685;BME280;1352;48.446;9.156;2022-12-01T06:57:47;95708.25;;;3.47;100.00
2685;BME280;1352;48.446;9.156;2022-12-01T07:00:15;95707.34;;;3.48;100.00
2685;BME280;1352;48.446;9.156;2022-12-01T07:02:42;95705.59;;;3.48;100.00
2685;BME280;1352;48.446;9.156;2022-12-01T07:05:09;95706.31;;;3.50;100.00
2685;BME280;1352;48.446;9.156;2022-12-01T07:07:37;95711.31;;;3.53;100.00
2685;BME280;1352;48.446;9.156;2022-12-01T07:10:06;95705.25;;;3.54;100.00
2685;BME280;1352;48.446;9.156;2022-12-01T07:12:36;95710.09;;;3.45;100.00
2685;BME280;1352;48.446;9.156;2022-12-01T07:15:03;95711.75;;;3.46;100.00
2685;BME280;1352;48.446;9.156;2022-12-01T07:17:31;95715.81;;;3.50;100.00
2685;BME280;1352;48.446;9.156;2022-12-01T07:19:58;95718.16;;;3.54;100.00
2685;BME280;1352;48.446;9.156;2022-12-01T07:22:25;95726.22;;;3.48;100.00
2685;BME280;1352;48.446;9.156;2022-12-01T07:24:53;95720.88;;;3.51;100.00
2685;BME280;1352;48.446;9.156;2022-12-01T07:27:20;95725.28;;;3.49;100.00
2685;BME280;1352;48.446;9.156;2022-12-01T07:29:49;95731.19;;;3.51;100.00
2685;BME280;1352;48.446;9.156;2022-12-01T07:32:16;95729.38;;;3.53;100.00
2685;BME280;1352;48.446;9.156;2022-12-01T07:34:43;95731.97;;;3.53;100.00
2685;BME280;1352;48.446;9.156;2022-12-01T07:37:10;95732.38;;;3.61;100.00
2685;BME280;1352;48.446;9.156;2022-12-01T07:39:37;95730.06;;;3.57;100.00
2685;BME280;1352;48.446;9.156;2022-12-01T07:42:04;95727.88;;;3.49;100.00
2685;BME280;1352;48.446;9.156;2022-12-01T07:44:31;95731.81;;;3.56;100.00
2685;BME280;1352;48.446;9.156;2022-12-01T07:47:00;95728.53;;;3.53;100.00
2685;BME280;1352;48.446;9.156;2022-12-01T07:49:27;95730.78;;;3.59;100.00
2685;BME280;1352;48.446;9.156;2022-12-01T07:51:54;95731.53;;;3.61;100.00
2685;BME280;1352;48.446;9.156;2022-12-01T07:54:21;95734.13;;;3.61;100.00
2685;BME280;1352;48.446;9.156;2022-12-01T07:56:50;95733.97;;;3.64;100.00
2685;BME280;1352;48.446;9.156;2022-12-01T07:59:17;95733.38;;;3.59;100.00
2685;BME280;1352;48.446;9.156;2022-12-01T08:01:44;95737.53;;;3.61;100.00
2685;BME280;1352;48.446;9.156;2022-12-01T08:04:13;95732.38;;;3.61;100.00
2685;BME280;1352;48.446;9.156;2022-12-01T08:06:40;95738.22;;;3.65;100.00
2685;BME280;1352;48.446;9.156;2022-12-01T08:09:07;95736.63;;;3.62;100.00
2685;BME280;1352;48.446;9.156;2022-12-01T08:11:34;95731.38;;;3.64;100.00
2685;BME280;1352;48.446;9.156;2022-12-01T08:14:02;95735.72;;;3.63;100.00
2685;BME280;1352;48.446;9.156;2022-12-01T08:16:29;95726.56;;;3.58;100.00
2685;BME280;1352;48.446;9.156;2022-12-01T08:18:56;95727.28;;;3.60;100.00
2685;BME280;1352;48.446;9.156;2022-12-01T08:21:25;95733.97;;;3.64;100.00
2685;BME280;1352;48.446;9.156;2022-12-01T08:23:52;95728.63;;;3.67;100.00
2685;BME280;1352;48.446;9.156;2022-12-01T08:26:21;95740.44;;;3.71;100.00
2685;BME280;1352;48.446;9.156;2022-12-01T08:28:49;95734.44;;;3.70;100.00
2685;BME280;1352;48.446;9.156;2022-12-01T08:31:19;95735.72;;;3.63;100.00
2685;BME280;1352;48.446;9.156;2022-12-01T08:33:47;95744.13;;;3.67;100.00
2685;BME280;1352;48.446;9.156;2022-12-01T08:36:15;95744.28;;;3.64;100.00
2685;BME280;1352;48.446;9.156;2022-12-01T08:38:45;95746.88;;;3.48;100.00
2685;BME280;1352;48.446;9.156;2022-12-01T08:41:13;95743.13;;;3.38;100.00
2685;BME280;1352;48.446;9.156;2022-12-01T08:43:41;95758.50;;;3.40;100.00
2685;BME280;1352;48.446;9.156;2022-12-01T08:46:10;95747.25;;;3.41;100.00
2685;BME280;1352;48.446;9.156;2022-12-01T08:48:38;95752.50;;;3.39;100.00
2685;BME280;1352;48.446;9.156;2022-12-01T08:51:08;95750.16;;;3.34;100.00
2685;BME280;1352;48.446;9.156;2022-12-01T08:53:36;95758.66;;;3.36;100.00
2685;BME280;1352;48.446;9.156;2022-12-01T08:56:08;95763.53;;;3.25;100.00
2685;BME280;1352;48.446;9.156;2022-12-01T08:58:36;95753.09;;;3.28;100.00
2685;BME280;1352;48.446;9.156;2022-12-01T09:01:04;95758.53;;;3.22;100.00
2685;BME280;1352;48.446;9.156;2022-12-01T09:03:33;95754.47;;;3.18;100.00
2685;BME280;1352;48.446;9.156;2022-12-01T09:06:02;95756.78;;;3.23;100.00
2685;BME280;1352;48.446;9.156;2022-12-01T09:08:29;95771.91;;;3.13;100.00
2685;BME280;1352;48.446;9.156;2022-12-01T09:10:57;95768.69;;;3.10;100.00
2685;BME280;1352;48.446;9.156;2022-12-01T09:13:26;95771.06;;;3.13;100.00
2685;BME280;1352;48.446;9.156;2022-12-01T09:15:55;95769.25;;;3.15;100.00
2685;BME280;1352;48.446;9.156;2022-12-01T09:18:23;95779.13;;;3.07;100.00
2685;BME280;1352;48.446;9.156;2022-12-01T09:20:50;95773.91;;;3.08;100.00
2685;BME280;1352;48.446;9.156;2022-12-01T09:23:18;95778.06;;;3.11;100.00
2685;BME280;1352;48.446;9.156;2022-12-01T09:25:46;95775.72;;;3.06;100.00
2685;BME280;1352;48.446;9.156;2022-12-01T09:28:13;95780.56;;;3.12;100.00
2685;BME280;1352;48.446;9.156;2022-12-01T09:30:42;95780.94;;;3.05;100.00
2685;BME280;1352;48.446;9.156;2022-12-01T09:33:09;95777.91;;;3.14;100.00
2685;BME280;1352;48.446;9.156;2022-12-01T09:35:37;95775.16;;;3.01;100.00
2685;BME280;1352;48.446;9.156;2022-12-01T09:38:04;95772.94;;;3.11;100.00
2685;BME280;1352;48.446;9.156;2022-12-01T09:40:34;95775.16;;;3.01;100.00
2685;BME280;1352;48.446;9.156;2022-12-01T09:43:04;95774.81;;;3.07;100.00
2685;BME280;1352;48.446;9.156;2022-12-01T09:45:36;95777.31;;;3.09;100.00
2685;BME280;1352;48.446;9.156;2022-12-01T09:48:06;95770.16;;;3.14;100.00
2685;BME280;1352;48.446;9.156;2022-12-01T09:50:39;95766.69;;;3.15;100.00
2685;BME280;1352;48.446;9.156;2022-12-01T09:53:07;95769.59;;;3.09;100.00
2685;BME280;1352;48.446;9.156;2022-12-01T09:55:40;95768.06;;;3.05;100.00
2685;BME280;1352;48.446;9.156;2022-12-01T09:58:14;95765.50;;;3.05;100.00
2685;BME280;1352;48.446;9.156;2022-12-01T10:00:44;95762.25;;;3.01;100.00
2685;BME280;1352;48.446;9.156;2022-12-01T10:03:21;95757.59;;;2.92;100.00
2685;BME280;1352;48.446;9.156;2022-12-01T10:05:53;95748.84;;;2.94;100.00
2685;BME280;1352;48.446;9.156;2022-12-01T10:08:23;95753.25;;;2.92;100.00
2685;BME280;1352;48.446;9.156;2022-12-01T10:10:55;95750.06;;;2.87;100.00
2685;BME280;1352;48.446;9.156;2022-12-01T10:13:27;95742.47;;;3.02;100.00
2685;BME280;1352;48.446;9.156;2022-12-01T10:16:09;95749.13;;;3.06;100.00
2685;BME280;1352;48.446;9.156;2022-12-01T10:18:50;95745.97;;;3.01;100.00
2685;BME280;1352;48.446;9.156;2022-12-01T10:21:29;95748.91;;;3.10;100.00
2685;BME280;1352;48.446;9.156;2022-12-01T10:24:10;95743.88;;;3.07;100.00
2685;BME280;1352;48.446;9.156;2022-12-01T10:26:46;95741.75;;;3.15;100.00
2685;BME280;1352;48.446;9.156;2022-12-01T10:29:26;95735.75;;;3.15;100.00
2685;BME280;1352;48.446;9.156;2022-12-01T10:31:55;95730.78;;;3.27;100.00
2685;BME280;1352;48.446;9.156;2022-12-01T10:34:27;95734.00;;;3.31;100.00
2685;BME280;1352;48.446;9.156;2022-12-01T10:36:55;95735.69;;;3.32;100.00
2685;BME280;1352;48.446;9.156;2022-12-01T10:39:27;95735.19;;;3.25;100.00
2685;BME280;1352;48.446;9.156;2022-12-01T10:42:01;95724.81;;;3.27;100.00
2685;BME280;1352;48.446;9.156;2022-12-01T10:44:30;95726.13;;;3.34;100.00
2685;BME280;1352;48.446;9.156;2022-12-01T10:46:57;95721.72;;;3.36;100.00
2685;BME280;1352;48.446;9.156;2022-12-01T10:49:36;95726.88;;;3.20;100.00
2685;BME280;1352;48.446;9.156;2022-12-01T10:52:05;95722.22;;;3.27;100.00
2685;BME280;1352;48.446;9.156;2022-12-01T10:54:35;95720.22;;;3.32;100.00
2685;BME280;1352;48.446;9.156;2022-12-01T10:57:05;95719.44;;;3.14;100.00
2685;BME280;1352;48.446;9.156;2022-12-01T10:59:35;95720.41;;;3.29;100.00
2685;BME280;1352;48.446;9.156;2022-12-01T11:02:12;95715.88;;;3.32;100.00
2685;BME280;1352;48.446;9.156;2022-12-01T11:04:50;95718.53;;;3.31;100.00
2685;BME280;1352;48.446;9.156;2022-12-01T11:07:21;95711.06;;;3.26;100.00
2685;BME280;1352;48.446;9.156;2022-12-01T11:12:39;95707.75;;;3.24;100.00
2685;BME280;1352;48.446;9.156;2022-12-01T11:15:16;95712.56;;;3.30;100.00
2685;BME280;1352;48.446;9.156;2022-12-01T11:17:45;95708.16;;;3.17;100.00
2685;BME280;1352;48.446;9.156;2022-12-01T11:20:41;95707.97;;;3.04;100.00
2685;BME280;1352;48.446;9.156;2022-12-01T11:23:23;95702.31;;;3.13;100.00
2685;BME280;1352;48.446;9.156;2022-12-01T11:26:00;95698.41;;;3.22;100.00
2685;BME280;1352;48.446;9.156;2022-12-01T11:28:30;95697.91;;;3.31;100.00
2685;BME280;1352;48.446;9.156;2022-12-01T11:30:59;95696.63;;;3.40;100.00
2685;BME280;1352;48.446;9.156;2022-12-01T11:33:28;95693.38;;;3.36;100.00
2685;BME280;1352;48.446;9.156;2022-12-01T11:35:59;95693.28;;;3.38;100.00
2685;BME280;1352;48.446;9.156;2022-12-01T11:38:30;95692.19;;;3.42;100.00
2685;BME280;1352;48.446;9.156;2022-12-01T11:41:00;95698.09;;;3.44;100.00
2685;BME280;1352;48.446;9.156;2022-12-01T11:43:29;95695.44;;;3.45;100.00
2685;BME280;1352;48.446;9.156;2022-12-01T11:46:01;95692.03;;;3.45;100.00
2685;BME280;1352;48.446;9.156;2022-12-01T11:48:31;95696.13;;;3.49;100.00
2685;BME280;1352;48.446;9.156;2022-12-01T11:51:05;95690.63;;;3.55;100.00
2685;BME280;1352;48.446;9.156;2022-12-01T11:53:35;95691.75;;;3.49;100.00
2685;BME280;1352;48.446;9.156;2022-12-01T11:56:18;95683.47;;;3.44;100.00
2685;BME280;1352;48.446;9.156;2022-12-01T11:58:49;95691.19;;;3.44;100.00
2685;BME280;1352;48.446;9.156;2022-12-01T12:01:28;95692.88;;;3.45;100.00
2685;BME280;1352;48.446;9.156;2022-12-01T12:04:12;95689.28;;;3.48;100.00
2685;BME280;1352;48.446;9.156;2022-12-01T12:06:47;95684.69;;;3.53;100.00
2685;BME280;1352;48.446;9.156;2022-12-01T12:09:38;95687.19;;;3.54;100.00
2685;BME280;1352;48.446;9.156;2022-12-01T12:12:15;95683.22;;;3.49;100.00
2685;BME280;1352;48.446;9.156;2022-12-01T12:14:53;95679.81;;;3.48;100.00
2685;BME280;1352;48.446;9.156;2022-12-01T12:17:46;95683.88;;;3.52;100.00
2685;BME280;1352;48.446;9.156;2022-12-01T12:20:27;95673.31;;;3.57;100.00
2685;BME280;1352;48.446;9.156;2022-12-01T12:23:09;95682.97;;;3.53;100.00
2685;BME280;1352;48.446;9.156;2022-12-01T12:25:50;95678.56;;;3.55;100.00
2685;BME280;1352;48.446;9.156;2022-12-01T12:28:30;95675.53;;;3.63;100.00
2685;BME280;1352;48.446;9.156;2022-12-01T12:31:07;95673.78;;;3.63;100.00
2685;BME280;1352;48.446;9.156;2022-12-01T12:34:10;95670.72;;;3.57;100.00
2685;BME280;1352;48.446;9.156;2022-12-01T12:36:46;95667.56;;;3.67;100.00
2685;BME280;1352;48.446;9.156;2022-12-01T12:39:30;95666.53;;;3.70;100.00
2685;BME280;1352;48.446;9.156;2022-12-01T12:42:05;95669.13;;;3.70;100.00
2685;BME280;1352;48.446;9.156;2022-12-01T12:44:43;95668.72;;;3.62;100.00
2685;BME280;1352;48.446;9.156;2022-12-01T12:47:35;95663.47;;;3.63;100.00
2685;BME280;1352;48.446;9.156;2022-12-01T12:50:20;95659.06;;;3.50;100.00
2685;BME280;1352;48.446;9.156;2022-12-01T12:52:52;95662.59;;;3.49;100.00
2685;BME280;1352;48.446;9.156;2022-12-01T12:55:25;95664.66;;;3.58;100.00
2685;BME280;1352;48.446;9.156;2022-12-01T12:57:56;95667.13;;;3.59;100.00
2685;BME280;1352;48.446;9.156;2022-12-01T13:00:26;95662.56;;;3.64;100.00
2685;BME280;1352;48.446;9.156;2022-12-01T13:02:55;95658.16;;;3.66;100.00
2685;BME280;1352;48.446;9.156;2022-12-01T13:05:26;95670.03;;;3.69;100.00
2685;BME280;1352;48.446;9.156;2022-12-01T13:07:59;95668.22;;;3.71;100.00
2685;BME280;1352;48.446;9.156;2022-12-01T13:10:35;95664.41;;;3.62;100.00
2685;BME280;1352;48.446;9.156;2022-12-01T13:13:16;95669.38;;;3.65;100.00
2685;BME280;1352;48.446;9.156;2022-12-01T13:15:46;95660.38;;;3.72;100.00
2685;BME280;1352;48.446;9.156;2022-12-01T13:18:25;95665.72;;;3.69;100.00
2685;BME280;1352;48.446;9.156;2022-12-01T13:20:54;95662.22;;;3.70;100.00
2685;BME280;1352;48.446;9.156;2022-12-01T13:23:23;95662.13;;;3.72;100.00
2685;BME280;1352;48.446;9.156;2022-12-01T13:25:55;95659.06;;;3.65;100.00
2685;BME280;1352;48.446;9.156;2022-12-01T13:28:26;95655.56;;;3.66;100.00
2685;BME280;1352;48.446;9.156;2022-12-01T13:30:59;95650.59;;;3.63;100.00
2685;BME280;1352;48.446;9.156;2022-12-01T13:33:27;95660.97;;;3.62;100.00
2685;BME280;1352;48.446;9.156;2022-12-01T13:35:55;95653.31;;;3.60;100.00
2685;BME280;1352;48.446;9.156;2022-12-01T13:38:25;95655.66;;;3.65;100.00
2685;BME280;1352;48.446;9.156;2022-12-01T13:41:20;95655.81;;;3.62;100.00
2685;BME280;1352;48.446;9.156;2022-12-01T13:43:59;95651.97;;;3.69;100.00
2685;BME280;1352;48.446;9.156;2022-12-01T13:46:29;95652.56;;;3.74;100.00
2685;BME280;1352;48.446;9.156;2022-12-01T13:48:58;95642.16;;;3.76;100.00